createdAt,value
2023-04-07T00:01:44.300Z,11.24
2023-04-07T00:04:10.836Z,11.22
2023-04-07T00:06:37.401Z,11.16
2023-04-07T00:09:03.812Z,11.13
2023-04-07T00:11:30.176Z,11.12
2023-04-07T00:13:56.623Z,11.16
2023-04-07T00:16:23.177Z,11.23
2023-04-07T00:18:49.559Z,11.23
2023-04-07T00:21:15.963Z,11.22
2023-04-07T00:23:42.319Z,11.28
2023-04-07T00:26:08.665Z,11.24
2023-04-07T00:28:35.007Z,11.18
2023-04-07T00:31:01.415Z,11.06
2023-04-07T00:33:27.775Z,11.14
2023-04-07T00:35:54.234Z,11.16
2023-04-07T00:38:20.684Z,11.08
2023-04-07T00:40:47.038Z,10.99
2023-04-07T00:43:13.375Z,10.95
2023-04-07T00:45:39.757Z,10.91
2023-04-07T00:48:06.134Z,10.93
2023-04-07T00:50:32.547Z,10.93
2023-04-07T00:52:58.968Z,11.08
2023-04-07T00:55:25.357Z,11.23
2023-04-07T00:57:51.757Z,11.26
2023-04-07T01:00:18.114Z,11.36
2023-04-07T01:02:44.829Z,11.32
2023-04-07T01:05:11.474Z,11.21
2023-04-07T01:07:38.051Z,11.07
2023-04-07T01:10:04.411Z,10.95
2023-04-07T01:12:30.742Z,10.94
2023-04-07T01:14:57.123Z,10.94
2023-04-07T01:17:23.524Z,10.91
2023-04-07T01:19:49.911Z,10.83
2023-04-07T01:22:16.318Z,10.88
2023-04-07T01:24:42.674Z,10.92
2023-04-07T01:27:09.030Z,10.88
2023-04-07T01:29:35.401Z,10.83
2023-04-07T01:32:01.853Z,11.01
2023-04-07T01:34:28.276Z,10.97
2023-04-07T01:36:54.651Z,10.97
2023-04-07T01:39:21.053Z,10.87
2023-04-07T01:41:47.410Z,10.82
2023-04-07T01:44:13.751Z,10.72
2023-04-07T01:46:40.208Z,10.68
2023-04-07T01:49:06.566Z,10.68
2023-04-07T01:51:32.904Z,10.66
2023-04-07T01:53:59.231Z,10.68
2023-04-07T01:56:26.672Z,10.61
2023-04-07T01:58:53.014Z,10.53
2023-04-07T02:01:19.435Z,10.38
2023-04-07T02:03:45.988Z,10.32
2023-04-07T02:06:12.465Z,10.34
2023-04-07T02:08:38.803Z,10.36
2023-04-07T02:11:05.207Z,10.32
2023-04-07T02:13:31.568Z,10.39
2023-04-07T02:15:57.971Z,10.44
2023-04-07T02:18:24.377Z,10.40
2023-04-07T02:20:50.715Z,10.36
2023-04-07T02:23:17.094Z,10.27
2023-04-07T02:25:43.454Z,10.18
2023-04-07T02:28:09.892Z,10.20
2023-04-07T02:30:36.280Z,10.19
2023-04-07T02:33:02.748Z,10.14
2023-04-07T02:35:29.189Z,10.13
2023-04-07T02:37:55.546Z,10.07
2023-04-07T02:40:21.960Z,10.05
2023-04-07T02:42:48.346Z,10.13
2023-04-07T02:45:14.721Z,10.13
2023-04-07T02:47:41.161Z,10.15
2023-04-07T02:50:07.551Z,10.21
2023-04-07T02:52:33.892Z,10.23
2023-04-07T02:55:00.295Z,10.19
2023-04-07T02:57:26.739Z,10.15
2023-04-07T02:59:53.086Z,10.18
2023-04-07T03:02:19.509Z,10.26
2023-04-07T03:04:45.923Z,10.30
2023-04-07T03:07:12.282Z,10.32
2023-04-07T03:09:38.630Z,10.34
2023-04-07T03:12:04.991Z,10.37
2023-04-07T03:14:31.346Z,10.41
2023-04-07T03:16:57.719Z,10.41
2023-04-07T03:19:24.145Z,10.46
2023-04-07T03:21:50.542Z,10.54
2023-04-07T03:24:16.943Z,10.57
2023-04-07T03:26:43.475Z,10.60
2023-04-07T03:29:09.824Z,10.64
2023-04-07T03:31:36.190Z,10.68
2023-04-07T03:34:02.525Z,10.70
2023-04-07T03:36:28.924Z,10.70
2023-04-07T03:38:55.321Z,10.75
2023-04-07T03:41:21.715Z,10.81
2023-04-07T03:43:48.102Z,10.89
2023-04-07T03:46:14.457Z,10.80
2023-04-07T03:48:40.834Z,10.85
2023-04-07T03:51:07.172Z,10.81
2023-04-07T03:53:33.569Z,10.80
2023-04-07T03:55:59.961Z,10.83
2023-04-07T03:58:26.345Z,10.94
2023-04-07T04:00:52.706Z,10.87
2023-04-07T04:03:19.232Z,10.77
2023-04-07T04:05:45.835Z,10.95
2023-04-07T04:08:12.227Z,10.94
2023-04-07T04:10:38.571Z,10.87
2023-04-07T04:13:04.944Z,10.79
2023-04-07T04:15:31.294Z,10.69
2023-04-07T04:17:57.665Z,10.74
2023-04-07T04:20:24.072Z,10.75
2023-04-07T04:22:50.434Z,10.75
2023-04-07T04:25:16.780Z,10.80
2023-04-07T04:27:43.115Z,10.92
2023-04-07T04:30:09.462Z,10.87
2023-04-07T04:32:35.936Z,10.83
2023-04-07T04:35:02.304Z,10.70
2023-04-07T04:37:28.652Z,10.71
2023-04-07T04:39:54.992Z,10.57
2023-04-07T04:42:21.379Z,10.50
2023-04-07T04:44:47.731Z,10.48
2023-04-07T04:47:14.124Z,10.39
2023-04-07T04:49:40.472Z,10.31
2023-04-07T04:52:06.804Z,10.23
2023-04-07T04:54:33.147Z,10.34
2023-04-07T04:56:59.526Z,10.27
2023-04-07T04:59:25.911Z,10.10
2023-04-07T05:01:52.355Z,10.06
2023-04-07T05:04:18.953Z,10.04
2023-04-07T05:06:45.438Z,9.99
2023-04-07T05:09:11.788Z,9.96
2023-04-07T05:11:38.159Z,9.91
2023-04-07T05:14:04.523Z,9.92
2023-04-07T05:16:30.935Z,9.99
2023-04-07T05:18:57.359Z,10.00
2023-04-07T05:21:23.748Z,10.00
2023-04-07T05:23:50.307Z,10.05
2023-04-07T05:26:16.854Z,10.08
2023-04-07T05:28:43.249Z,10.11
2023-04-07T05:31:09.696Z,10.11
2023-04-07T05:33:36.102Z,10.04
2023-04-07T05:36:02.470Z,10.08
2023-04-07T05:38:28.844Z,10.10
2023-04-07T05:40:55.224Z,10.05
2023-04-07T05:43:21.648Z,10.01
2023-04-07T05:45:48.031Z,9.98
2023-04-07T05:48:14.391Z,10.01
2023-04-07T05:50:40.761Z,10.07
2023-04-07T05:53:07.231Z,10.02
2023-04-07T05:55:33.596Z,10.03
2023-04-07T05:57:59.943Z,10.03
2023-04-07T06:00:26.305Z,10.03
2023-04-07T06:02:52.837Z,10.09
2023-04-07T06:05:19.380Z,10.13
2023-04-07T06:07:45.771Z,10.10
2023-04-07T06:10:12.119Z,10.10
2023-04-07T06:12:38.461Z,10.09
2023-04-07T06:15:04.810Z,10.05
2023-04-07T06:17:31.318Z,10.03
2023-04-07T06:19:57.690Z,10.00
2023-04-07T06:22:24.028Z,10.00
2023-04-07T06:24:50.362Z,10.03
2023-04-07T06:27:16.757Z,10.07
2023-04-07T06:29:43.117Z,10.09
2023-04-07T06:32:09.455Z,10.15
2023-04-07T06:34:35.850Z,10.17
2023-04-07T06:37:02.268Z,10.13
2023-04-07T06:39:28.636Z,10.20
2023-04-07T06:41:55.041Z,10.10
2023-04-07T06:44:21.434Z,10.23
2023-04-07T06:46:47.827Z,10.29
2023-04-07T06:49:14.186Z,10.33
2023-04-07T06:51:40.530Z,10.38
2023-04-07T06:54:06.914Z,10.40
2023-04-07T06:56:33.262Z,10.44
2023-04-07T06:58:59.593Z,10.43
2023-04-07T07:01:26.037Z,10.48
2023-04-07T07:03:52.767Z,10.49
2023-04-07T07:06:19.368Z,10.54
2023-04-07T07:08:45.753Z,10.54
2023-04-07T07:11:12.143Z,10.50
2023-04-07T07:13:38.579Z,10.43
2023-04-07T07:16:05.200Z,10.40
2023-04-07T07:18:31.904Z,10.38
2023-04-07T07:20:58.363Z,10.36
2023-04-07T07:23:24.728Z,10.39
2023-04-07T07:25:51.108Z,10.42
2023-04-07T07:28:17.485Z,10.40
2023-04-07T07:30:43.918Z,10.41
2023-04-07T07:33:10.343Z,10.41
2023-04-07T07:35:36.703Z,10.50
2023-04-07T07:38:03.051Z,10.51
2023-04-07T07:40:29.428Z,10.52
2023-04-07T07:42:55.794Z,10.64
2023-04-07T07:45:22.133Z,10.81
2023-04-07T07:47:48.610Z,10.89
2023-04-07T07:50:15.040Z,11.04
2023-04-07T07:52:41.427Z,11.03
2023-04-07T07:55:07.810Z,10.92
2023-04-07T07:57:34.157Z,10.99
2023-04-07T08:00:00.570Z,11.00
2023-04-07T08:02:27.028Z,11.06
2023-04-07T08:04:53.553Z,11.24
2023-04-07T08:07:20.009Z,11.32
2023-04-07T08:09:46.367Z,11.33
2023-04-07T08:12:12.701Z,11.40
2023-04-07T08:14:39.082Z,11.35
2023-04-07T08:17:05.448Z,11.37
2023-04-07T08:19:31.799Z,11.34
2023-04-07T08:21:58.188Z,11.35
2023-04-07T08:24:24.590Z,11.22
2023-04-07T08:26:50.939Z,11.20
2023-04-07T08:29:17.324Z,11.20
2023-04-07T08:31:43.688Z,11.16
2023-04-07T08:34:10.111Z,11.17
2023-04-07T08:36:36.859Z,11.14
2023-04-07T08:39:03.301Z,11.15
2023-04-07T08:41:29.756Z,11.19
2023-04-07T08:43:56.342Z,11.16
2023-04-07T08:46:22.875Z,11.15
2023-04-07T08:48:49.325Z,11.03
2023-04-07T08:51:15.745Z,11.13
2023-04-07T08:53:42.136Z,11.16
2023-04-07T08:56:08.501Z,11.29
2023-04-07T08:58:34.915Z,11.39
2023-04-07T09:01:01.329Z,11.61
2023-04-07T09:03:27.839Z,11.77
2023-04-07T09:05:54.228Z,11.81
2023-04-07T09:08:20.636Z,11.85
2023-04-07T09:10:47.031Z,11.94
2023-04-07T09:13:13.445Z,12.01
2023-04-07T09:15:39.800Z,12.00
2023-04-07T09:18:06.260Z,11.99
2023-04-07T09:20:32.676Z,11.96
2023-04-07T09:22:59.024Z,11.90
2023-04-07T09:25:25.426Z,11.81
2023-04-07T09:27:51.847Z,11.79
2023-04-07T09:30:18.236Z,11.78
2023-04-07T09:32:44.630Z,11.73
2023-04-07T09:35:11.031Z,11.87
2023-04-07T09:37:37.470Z,11.90
2023-04-07T09:40:03.835Z,11.95
2023-04-07T09:42:30.181Z,12.06
2023-04-07T09:44:56.518Z,12.00
2023-04-07T09:47:22.909Z,11.98
2023-04-07T09:49:49.313Z,11.96
2023-04-07T09:52:15.733Z,11.93
2023-04-07T09:54:42.094Z,12.02
2023-04-07T09:57:08.487Z,11.98
2023-04-07T09:59:34.888Z,12.06
2023-04-07T10:02:01.390Z,12.11
2023-04-07T10:04:27.934Z,12.12
2023-04-07T10:06:54.350Z,12.14
2023-04-07T10:09:20.711Z,12.35
2023-04-07T10:11:47.104Z,12.51
2023-04-07T10:14:13.489Z,12.49
2023-04-07T10:16:39.907Z,12.49
2023-04-07T10:19:06.317Z,12.67
2023-04-07T10:21:32.976Z,12.75
2023-04-07T10:23:59.410Z,12.78
2023-04-07T10:26:25.750Z,12.86
2023-04-07T10:28:54.534Z,12.88
2023-04-07T10:31:20.973Z,12.95
2023-04-07T10:33:47.673Z,13.05
2023-04-07T10:36:14.341Z,13.12
2023-04-07T10:38:40.727Z,13.20
2023-04-07T10:41:07.149Z,13.22
2023-04-07T10:43:33.614Z,13.08
2023-04-07T10:46:00.181Z,13.18
2023-04-07T10:48:26.739Z,13.35
2023-04-07T10:50:53.109Z,13.54
2023-04-07T10:53:19.519Z,13.43
2023-04-07T10:55:45.916Z,13.43
2023-04-07T10:58:12.319Z,13.39
2023-04-07T11:00:38.677Z,13.40
2023-04-07T11:03:05.151Z,13.12
2023-04-07T11:05:31.785Z,13.20
2023-04-07T11:07:58.182Z,13.31
2023-04-07T11:10:24.558Z,13.33
2023-04-07T11:12:50.943Z,13.49
2023-04-07T11:15:17.336Z,13.54
2023-04-07T11:17:43.732Z,13.61
2023-04-07T11:20:10.074Z,13.50
2023-04-07T11:22:36.534Z,13.47
2023-04-07T11:25:02.934Z,13.54
2023-04-07T11:27:29.283Z,13.68
2023-04-07T11:29:55.640Z,13.55
2023-04-07T11:32:24.905Z,13.69
2023-04-07T11:34:51.994Z,13.92
2023-04-07T11:37:18.347Z,14.12
2023-04-07T11:39:44.686Z,14.12
2023-04-07T11:42:11.101Z,13.93
2023-04-07T11:44:37.481Z,13.99
2023-04-07T11:47:04.041Z,14.11
2023-04-07T11:49:30.479Z,14.21
2023-04-07T11:51:56.890Z,14.26
2023-04-07T11:54:23.285Z,14.29
2023-04-07T11:56:49.650Z,14.31
2023-04-07T11:59:16.024Z,14.25
2023-04-07T12:01:42.487Z,14.24
2023-04-07T12:04:09.161Z,14.03
2023-04-07T12:06:35.769Z,14.01
2023-04-07T12:09:02.140Z,13.92
2023-04-07T12:11:28.557Z,13.86
2023-04-07T12:13:54.934Z,13.74
2023-04-07T12:16:21.342Z,13.80
2023-04-07T12:18:47.730Z,13.74
2023-04-07T12:21:14.177Z,13.73
2023-04-07T12:23:40.556Z,13.54
2023-04-07T12:26:06.932Z,13.59
2023-04-07T12:28:33.332Z,13.59
2023-04-07T12:30:59.690Z,13.83
2023-04-07T12:33:26.070Z,13.94
2023-04-07T12:35:52.583Z,14.11
2023-04-07T12:38:19.021Z,14.10
2023-04-07T12:40:45.406Z,14.14
2023-04-07T12:43:11.758Z,14.04
2023-04-07T12:45:38.216Z,14.34
2023-04-07T12:48:04.659Z,14.62
2023-04-07T12:50:31.077Z,14.91
2023-04-07T12:52:57.432Z,15.10
2023-04-07T12:55:23.800Z,15.25
2023-04-07T12:57:50.194Z,15.20
2023-04-07T13:00:16.549Z,15.30
2023-04-07T13:02:43.078Z,15.41
2023-04-07T13:05:09.531Z,15.54
2023-04-07T13:07:35.961Z,15.72
2023-04-07T13:10:02.312Z,15.64
2023-04-07T13:12:28.652Z,15.69
2023-04-07T13:15:00.263Z,15.75
2023-04-07T13:17:27.064Z,15.47
2023-04-07T13:19:54.273Z,15.53
2023-04-07T13:22:22.165Z,15.25
2023-04-07T13:24:49.728Z,15.12
2023-04-07T13:27:16.147Z,14.88
2023-04-07T13:29:42.485Z,14.62
2023-04-07T13:32:08.869Z,14.53
2023-04-07T13:34:35.211Z,14.29
2023-04-07T13:37:01.611Z,14.26
2023-04-07T13:39:27.950Z,14.20
2023-04-07T13:41:54.319Z,14.11
2023-04-07T13:44:20.667Z,14.26
2023-04-07T13:46:47.037Z,14.29
2023-04-07T13:49:13.474Z,14.29
2023-04-07T13:51:39.891Z,14.39
2023-04-07T13:54:06.273Z,14.41
2023-04-07T13:56:32.660Z,14.34
2023-04-07T13:58:59.039Z,14.35
2023-04-07T14:01:25.466Z,14.33
2023-04-07T14:03:52.253Z,14.22
2023-04-07T14:06:19.058Z,14.19
2023-04-07T14:08:45.429Z,14.05
2023-04-07T14:11:11.811Z,14.22
2023-04-07T14:13:38.144Z,14.38
2023-04-07T14:16:04.517Z,14.33
2023-04-07T14:18:30.930Z,14.24
2023-04-07T14:20:57.317Z,14.06
2023-04-07T14:23:36.078Z,13.87
2023-04-07T14:26:03.864Z,13.64
2023-04-07T14:28:30.205Z,13.58
2023-04-07T14:30:56.589Z,13.68
2023-04-07T14:33:22.958Z,13.90
2023-04-07T14:35:49.384Z,14.11
2023-04-07T14:38:15.769Z,14.14
2023-04-07T14:40:42.150Z,14.30
2023-04-07T14:43:08.549Z,14.28
2023-04-07T14:45:34.935Z,14.34
2023-04-07T14:48:01.376Z,14.42
2023-04-07T14:50:27.803Z,14.52
2023-04-07T14:52:54.193Z,14.53
2023-04-07T14:55:20.726Z,14.57
2023-04-07T14:57:47.153Z,14.63
2023-04-07T15:00:13.535Z,14.74
2023-04-07T15:02:40.522Z,14.75
2023-04-07T15:05:07.041Z,14.63
2023-04-07T15:07:33.377Z,14.66
2023-04-07T15:09:59.735Z,14.71
2023-04-07T15:12:26.123Z,14.66
2023-04-07T15:14:52.538Z,14.53
2023-04-07T15:17:18.922Z,14.55
2023-04-07T15:19:45.289Z,14.49
2023-04-07T15:22:11.676Z,14.43
2023-04-07T15:24:38.016Z,14.42
2023-04-07T15:27:04.345Z,14.32
2023-04-07T15:29:30.726Z,14.33
2023-04-07T15:31:57.160Z,14.27
2023-04-07T15:34:23.609Z,14.35
2023-04-07T15:36:50.009Z,14.19
2023-04-07T15:39:16.363Z,14.20
2023-04-07T15:41:42.740Z,14.21
2023-04-07T15:44:09.091Z,14.07
2023-04-07T15:46:35.488Z,14.02
2023-04-07T15:49:01.840Z,14.06
2023-04-07T15:51:28.174Z,14.06
2023-04-07T15:53:54.558Z,14.02
2023-04-07T15:56:20.964Z,13.94
2023-04-07T15:58:47.357Z,13.99
2023-04-07T16:01:13.837Z,13.96
2023-04-07T16:03:40.369Z,13.88
2023-04-07T16:06:06.814Z,13.91
2023-04-07T16:08:33.207Z,14.05
2023-04-07T16:10:59.598Z,14.26
2023-04-07T16:13:26.109Z,14.38
2023-04-07T16:15:52.492Z,14.46
2023-04-07T16:18:18.877Z,14.68
2023-04-07T16:20:45.270Z,14.62
2023-04-07T16:23:12.581Z,14.80
2023-04-07T16:25:39.082Z,14.85
2023-04-07T16:28:05.480Z,14.78
2023-04-07T16:30:31.842Z,14.49
2023-04-07T16:32:58.313Z,14.40
2023-04-07T16:35:24.676Z,14.46
2023-04-07T16:37:51.022Z,14.44
2023-04-07T16:40:17.410Z,14.33
2023-04-07T16:42:43.762Z,14.31
2023-04-07T16:45:10.141Z,14.25
2023-04-07T16:47:36.559Z,14.18
2023-04-07T16:50:02.992Z,14.28
2023-04-07T16:52:29.403Z,14.19
2023-04-07T16:54:55.813Z,14.01
2023-04-07T16:57:22.193Z,13.93
2023-04-07T16:59:48.535Z,13.92
2023-04-07T17:02:15.046Z,13.64
2023-04-07T17:04:41.574Z,13.59
2023-04-07T17:07:07.959Z,13.49
2023-04-07T17:09:34.340Z,13.21
2023-04-07T17:12:00.739Z,12.97
2023-04-07T17:14:27.111Z,12.83
2023-04-07T17:16:53.511Z,12.56
2023-04-07T17:19:19.912Z,12.54
2023-04-07T17:21:46.314Z,12.43
2023-04-07T17:24:12.689Z,12.33
2023-04-07T17:26:39.085Z,12.28
2023-04-07T17:29:05.464Z,12.22
2023-04-07T17:31:31.897Z,12.13
2023-04-07T17:33:58.309Z,12.16
2023-04-07T17:36:24.709Z,12.08
2023-04-07T17:38:51.062Z,12.14
2023-04-07T17:41:17.431Z,12.12
2023-04-07T17:43:43.817Z,11.94
2023-04-07T17:46:10.242Z,11.91
2023-04-07T17:48:36.597Z,11.92
2023-04-07T17:51:02.987Z,11.90
2023-04-07T17:53:29.383Z,11.95
2023-04-07T17:55:55.714Z,11.87
2023-04-07T17:58:22.056Z,11.84
2023-04-07T18:00:48.443Z,11.77
2023-04-07T18:03:14.993Z,11.79
2023-04-07T18:05:41.476Z,11.91
2023-04-07T18:08:07.819Z,12.03
2023-04-07T18:10:34.198Z,11.97
2023-04-07T18:13:00.588Z,11.79
2023-04-07T18:15:26.964Z,11.78
2023-04-07T18:17:53.391Z,11.76
2023-04-07T18:20:19.803Z,11.93
2023-04-07T18:22:46.187Z,12.09
2023-04-07T18:25:12.590Z,12.14
2023-04-07T18:27:38.983Z,12.10
2023-04-07T18:30:05.333Z,11.99
2023-04-07T18:32:31.761Z,11.92
2023-04-07T18:34:58.132Z,11.82
2023-04-07T18:37:24.462Z,11.62
2023-04-07T18:39:50.837Z,11.55
2023-04-07T18:42:17.216Z,11.54
2023-04-07T18:44:43.571Z,11.59
2023-04-07T18:47:09.913Z,11.57
2023-04-07T18:49:36.293Z,11.56
2023-04-07T18:52:02.683Z,11.55
2023-04-07T18:54:29.027Z,11.56
2023-04-07T18:56:55.411Z,11.51
2023-04-07T18:59:21.808Z,11.54
2023-04-07T19:01:48.213Z,11.39
2023-04-07T19:04:14.774Z,11.21
2023-04-07T19:06:41.287Z,11.24
2023-04-07T19:09:07.763Z,11.18
2023-04-07T19:11:34.117Z,11.15
2023-04-07T19:14:00.443Z,11.17
2023-04-07T19:16:26.864Z,11.13
2023-04-07T19:18:53.268Z,11.01
2023-04-07T19:21:19.639Z,10.94
2023-04-07T19:23:46.131Z,10.83
2023-04-07T19:26:12.634Z,10.66
2023-04-07T19:28:39.033Z,10.62
2023-04-07T19:31:05.425Z,10.67
2023-04-07T19:33:31.809Z,10.70
2023-04-07T19:35:58.262Z,10.71
2023-04-07T19:38:24.702Z,10.71
2023-04-07T19:40:51.083Z,10.74
2023-04-07T19:43:17.520Z,10.73
2023-04-07T19:45:43.952Z,10.70
2023-04-07T19:48:10.358Z,10.70
2023-04-07T19:50:36.719Z,10.73
2023-04-07T19:53:03.097Z,10.67
2023-04-07T19:55:29.490Z,10.63
2023-04-07T19:57:55.833Z,10.70
2023-04-07T20:00:22.219Z,10.77
2023-04-07T20:02:48.736Z,10.71
2023-04-07T20:05:15.285Z,10.74
2023-04-07T20:07:41.640Z,10.72
2023-04-07T20:10:08.006Z,10.72
2023-04-07T20:12:34.382Z,10.70
2023-04-07T20:15:00.735Z,10.75
2023-04-07T20:17:27.127Z,10.84
2023-04-07T20:19:53.502Z,10.91
2023-04-07T20:22:20.118Z,10.94
2023-04-07T20:24:46.509Z,10.91
2023-04-07T20:27:12.833Z,10.99
2023-04-07T20:29:39.209Z,10.96
2023-04-07T20:32:05.576Z,11.01
2023-04-07T20:34:31.959Z,11.05
2023-04-07T20:36:58.306Z,11.01
2023-04-07T20:39:24.676Z,11.00
2023-04-07T20:41:51.053Z,11.04
2023-04-07T20:44:17.462Z,11.05
2023-04-07T20:46:43.851Z,11.05
2023-04-07T20:49:10.201Z,11.01
2023-04-07T20:51:36.620Z,11.10
2023-04-07T20:54:03.057Z,11.12
2023-04-07T20:56:29.863Z,11.17
2023-04-07T20:58:56.281Z,11.26
2023-04-07T21:01:22.680Z,11.32
2023-04-07T21:03:49.258Z,11.32
2023-04-07T21:06:15.639Z,11.27
2023-04-07T21:08:42.010Z,11.24
2023-04-07T21:11:08.403Z,11.12
2023-04-07T21:13:34.759Z,11.06
2023-04-07T21:16:01.270Z,11.07
2023-04-07T21:18:27.733Z,11.10
2023-04-07T21:20:54.111Z,11.16
2023-04-07T21:23:20.678Z,11.13
2023-04-07T21:25:47.327Z,11.26
2023-04-07T21:28:13.705Z,11.34
2023-04-07T21:30:40.043Z,11.29
2023-04-07T21:33:06.420Z,11.31
2023-04-07T21:35:32.897Z,11.30
2023-04-07T21:37:59.256Z,11.23
2023-04-07T21:40:25.596Z,11.15
2023-04-07T21:42:52.155Z,11.10
2023-04-07T21:45:18.562Z,11.23
2023-04-07T21:47:45.052Z,11.27
2023-04-07T21:50:11.479Z,11.19
2023-04-07T21:52:37.829Z,11.23
2023-04-07T21:55:04.200Z,11.19
2023-04-07T21:57:30.603Z,11.11
2023-04-07T21:59:56.975Z,11.05
2023-04-07T22:02:23.403Z,11.10
2023-04-07T22:04:49.916Z,11.01
2023-04-07T22:07:16.332Z,10.97
2023-04-07T22:09:42.685Z,10.88
2023-04-07T22:12:09.062Z,10.77
2023-04-07T22:14:35.458Z,10.53
2023-04-07T22:17:01.822Z,10.52
2023-04-07T22:19:28.205Z,10.33
2023-04-07T22:21:54.597Z,10.40
2023-04-07T22:24:20.942Z,10.38
2023-04-07T22:26:47.316Z,10.29
2023-04-07T22:29:13.653Z,10.09
2023-04-07T22:31:40.078Z,10.22
2023-04-07T22:34:06.509Z,10.30
2023-04-07T22:36:32.885Z,10.26
2023-04-07T22:38:59.233Z,10.30
2023-04-07T22:41:25.608Z,10.34
2023-04-07T22:43:51.951Z,10.44
2023-04-07T22:46:18.314Z,10.48
2023-04-07T22:48:44.710Z,10.29
2023-04-07T22:51:11.060Z,10.23
2023-04-07T22:53:37.400Z,10.20
2023-04-07T22:56:03.800Z,10.24
2023-04-07T22:58:30.142Z,10.26
2023-04-07T23:00:56.615Z,10.20
2023-04-07T23:03:23.197Z,10.17
2023-04-07T23:05:49.677Z,10.12
2023-04-07T23:08:16.024Z,10.10
2023-04-07T23:10:42.368Z,10.06
2023-04-07T23:13:08.707Z,10.04
2023-04-07T23:15:35.081Z,9.86
2023-04-07T23:18:01.523Z,9.69
2023-04-07T23:20:27.989Z,9.66
2023-04-07T23:22:54.364Z,9.58
2023-04-07T23:25:20.749Z,9.49
2023-04-07T23:27:47.094Z,9.55
2023-04-07T23:30:13.462Z,9.53
2023-04-07T23:32:39.893Z,9.55
2023-04-07T23:35:06.272Z,9.56
2023-04-07T23:37:32.604Z,9.56
2023-04-07T23:39:58.938Z,9.50
2023-04-07T23:42:25.290Z,9.54
2023-04-07T23:44:51.665Z,9.46
2023-04-07T23:47:18.073Z,9.45
2023-04-07T23:49:44.487Z,9.52
2023-04-07T23:52:10.837Z,9.55
2023-04-07T23:54:37.219Z,9.53
2023-04-07T23:57:03.610Z,9.48
2023-04-07T23:59:29.953Z,9.41
